createdAt,value
2018-03-07T00:01:18.996Z,14.60
2018-03-07T00:04:22.154Z,13.70
2018-03-07T00:07:25.408Z,12.60
2018-03-07T00:10:28.673Z,13.43
2018-03-07T00:13:31.937Z,12.40
2018-03-07T00:16:35.212Z,12.35
2018-03-07T00:19:38.430Z,12.40
2018-03-07T00:22:41.705Z,12.43
2018-03-07T00:25:44.984Z,12.13
2018-03-07T00:28:48.172Z,10.70
2018-03-07T00:31:51.466Z,11.17
2018-03-07T00:34:54.668Z,12.25
2018-03-07T00:37:57.941Z,10.85
2018-03-07T00:41:01.181Z,11.03
2018-03-07T00:44:05.054Z,10.72
2018-03-07T00:47:08.618Z,11.25
2018-03-07T00:50:11.924Z,11.70
2018-03-07T00:53:15.276Z,11.10
2018-03-07T00:56:18.505Z,10.80
2018-03-07T00:59:21.794Z,10.67
2018-03-07T01:02:24.934Z,11.20
2018-03-07T01:05:28.801Z,11.30
2018-03-07T01:08:32.094Z,11.27
2018-03-07T01:11:35.559Z,11.63
2018-03-07T01:14:40.497Z,10.72
2018-03-07T01:17:43.709Z,10.65
2018-03-07T01:20:46.945Z,10.55
2018-03-07T01:23:50.245Z,10.17
2018-03-07T01:26:53.788Z,10.43
2018-03-07T01:29:57.108Z,10.18
2018-03-07T01:33:00.325Z,10.25
2018-03-07T01:36:03.842Z,9.80
2018-03-07T01:39:07.137Z,9.90
2018-03-07T01:42:10.953Z,10.23
2018-03-07T01:45:14.283Z,9.93
2018-03-07T01:48:17.701Z,10.20
2018-03-07T01:51:21.397Z,10.57
2018-03-07T01:54:24.576Z,11.10
2018-03-07T01:57:27.840Z,11.50
2018-03-07T02:00:46.919Z,11.83
2018-03-07T02:04:14.399Z,12.50
2018-03-07T02:07:37.818Z,12.15
2018-03-07T02:11:00.244Z,11.97
2018-03-07T02:14:08.317Z,13.07
2018-03-07T02:17:26.111Z,12.67
2018-03-07T02:20:51.468Z,12.25
2018-03-07T02:27:50.411Z,13.62
2018-03-07T02:31:24.375Z,12.30
2018-03-07T02:34:32.040Z,12.37
2018-03-07T02:37:46.934Z,12.30
2018-03-07T02:41:03.269Z,13.30
2018-03-07T02:44:14.931Z,12.75
2018-03-07T02:47:38.563Z,11.90
2018-03-07T02:50:53.987Z,12.27
2018-03-07T02:54:14.892Z,12.60
2018-03-07T02:57:18.166Z,12.47
2018-03-07T03:00:21.771Z,12.27
2018-03-07T03:03:25.034Z,11.88
2018-03-07T03:06:28.174Z,14.27
2018-03-07T03:09:31.603Z,14.37
2018-03-07T03:12:34.795Z,14.90
2018-03-07T03:15:38.109Z,14.43
2018-03-07T03:18:41.413Z,15.57
2018-03-07T03:21:44.709Z,16.67
2018-03-07T03:24:47.912Z,18.05
2018-03-07T03:27:51.221Z,16.80
2018-03-07T03:30:54.499Z,15.93
2018-03-07T03:33:57.878Z,18.23
2018-03-07T03:37:01.001Z,19.97
2018-03-07T03:40:04.324Z,19.62
2018-03-07T03:43:07.537Z,22.82
2018-03-07T03:46:10.731Z,25.17
2018-03-07T03:49:13.985Z,25.95
2018-03-07T03:52:17.194Z,25.32
2018-03-07T03:55:20.422Z,27.07
2018-03-07T03:58:23.585Z,26.73
2018-03-07T04:01:26.804Z,27.40
2018-03-07T04:04:30.045Z,29.00
2018-03-07T04:07:33.438Z,27.33
2018-03-07T04:10:36.760Z,26.40
2018-03-07T04:13:40.003Z,29.12
2018-03-07T04:16:43.260Z,26.48
2018-03-07T04:19:46.551Z,26.85
2018-03-07T04:22:49.951Z,25.82
2018-03-07T04:25:53.185Z,28.12
2018-03-07T04:28:56.372Z,29.33
2018-03-07T04:31:59.660Z,28.73
2018-03-07T04:35:02.961Z,29.97
2018-03-07T04:38:06.223Z,32.08
2018-03-07T04:41:09.578Z,29.05
2018-03-07T04:44:12.814Z,30.48
2018-03-07T04:47:16.040Z,29.85
2018-03-07T04:50:19.311Z,30.52
2018-03-07T04:53:22.638Z,29.95
2018-03-07T04:56:25.909Z,30.87
2018-03-07T04:59:29.207Z,31.37
2018-03-07T05:02:32.514Z,30.85
2018-03-07T05:05:35.762Z,31.30
2018-03-07T05:08:38.992Z,28.92
2018-03-07T05:11:42.286Z,31.47
2018-03-07T05:14:45.542Z,30.50
2018-03-07T05:17:48.879Z,31.12
2018-03-07T05:20:52.086Z,31.17
2018-03-07T05:23:55.383Z,31.25
2018-03-07T05:26:58.678Z,29.67
2018-03-07T05:30:01.998Z,28.40
2018-03-07T05:33:05.207Z,29.35
2018-03-07T05:36:08.440Z,29.18
2018-03-07T05:39:11.663Z,28.73
2018-03-07T05:42:14.957Z,26.68
2018-03-07T05:45:18.245Z,27.98
2018-03-07T05:48:21.609Z,27.65
2018-03-07T05:51:24.861Z,26.10
2018-03-07T05:54:29.223Z,27.27
2018-03-07T05:57:32.509Z,29.25
2018-03-07T06:00:36.237Z,26.27
2018-03-07T06:03:39.534Z,28.70
2018-03-07T06:06:42.848Z,28.15
2018-03-07T06:09:46.049Z,25.47
2018-03-07T06:12:49.441Z,26.73
2018-03-07T06:15:52.690Z,26.45
2018-03-07T06:18:55.938Z,27.00
2018-03-07T06:21:59.085Z,25.40
2018-03-07T06:25:02.283Z,23.90
2018-03-07T06:28:05.490Z,25.87
2018-03-07T06:31:08.758Z,26.00
2018-03-07T06:34:12.047Z,24.57
2018-03-07T06:37:15.339Z,23.93
2018-03-07T06:40:18.639Z,25.87
2018-03-07T06:43:22.004Z,24.82
2018-03-07T06:46:25.282Z,26.13
2018-03-07T06:49:28.477Z,26.00
2018-03-07T06:52:31.742Z,24.87
2018-03-07T06:55:34.998Z,25.33
2018-03-07T06:58:38.454Z,24.17
2018-03-07T07:01:41.618Z,25.10
2018-03-07T07:04:44.860Z,24.53
2018-03-07T07:07:48.135Z,22.07
2018-03-07T07:10:51.645Z,22.20
2018-03-07T07:13:54.835Z,21.57
2018-03-07T07:16:58.147Z,20.97
2018-03-07T07:20:01.343Z,18.40
2018-03-07T07:23:04.583Z,17.57
2018-03-07T07:26:07.819Z,16.07
2018-03-07T07:29:11.032Z,17.20
2018-03-07T07:32:14.461Z,16.07
2018-03-07T07:35:17.694Z,14.57
2018-03-07T07:38:20.972Z,15.80
2018-03-07T07:41:24.293Z,14.60
2018-03-07T07:44:27.578Z,14.60
2018-03-07T07:47:30.894Z,13.60
2018-03-07T07:50:34.189Z,13.68
2018-03-07T07:53:37.385Z,12.55
2018-03-07T07:56:40.658Z,12.47
2018-03-07T07:59:43.905Z,13.00
2018-03-07T08:02:47.317Z,11.93
2018-03-07T08:05:50.579Z,11.88
2018-03-07T08:08:53.778Z,11.68
2018-03-07T08:11:57.730Z,11.97
2018-03-07T08:15:00.962Z,11.10
2018-03-07T08:18:04.307Z,11.47
2018-03-07T08:21:07.494Z,11.00
2018-03-07T08:24:10.747Z,11.10
2018-03-07T08:27:14.043Z,12.00
2018-03-07T08:30:17.346Z,11.60
2018-03-07T08:33:20.746Z,12.30
2018-03-07T08:36:24.045Z,11.70
2018-03-07T08:39:27.341Z,10.03
2018-03-07T08:42:30.634Z,9.80
2018-03-07T08:45:33.883Z,8.50
2018-03-07T08:48:37.141Z,8.00
2018-03-07T08:51:40.935Z,8.57
2018-03-07T08:54:44.251Z,7.50
2018-03-07T08:57:47.562Z,6.90
2018-03-07T09:00:50.851Z,6.27
2018-03-07T09:03:54.129Z,6.00
2018-03-07T09:06:57.434Z,5.53
2018-03-07T09:10:00.637Z,5.40
2018-03-07T09:13:03.972Z,5.10
2018-03-07T09:16:07.226Z,4.47
2018-03-07T09:19:11.097Z,4.10
2018-03-07T09:22:14.334Z,4.33
2018-03-07T09:25:17.657Z,4.13
2018-03-07T09:28:20.859Z,4.40
2018-03-07T09:31:24.026Z,4.00
2018-03-07T09:34:27.232Z,4.00
2018-03-07T09:37:30.614Z,4.07
2018-03-07T09:40:33.812Z,3.40
2018-03-07T09:43:37.146Z,3.63
2018-03-07T09:46:40.405Z,4.00
2018-03-07T09:49:43.610Z,3.87
2018-03-07T09:52:46.896Z,4.00
2018-03-07T09:55:50.224Z,3.73
2018-03-07T09:58:53.495Z,4.00
2018-03-07T10:01:56.726Z,4.00
2018-03-07T10:04:59.902Z,3.57
2018-03-07T10:08:03.181Z,3.60
2018-03-07T10:11:06.481Z,3.27
2018-03-07T10:14:09.855Z,3.60
2018-03-07T10:17:13.218Z,3.80
2018-03-07T10:20:16.420Z,3.80
2018-03-07T10:23:19.679Z,3.30
2018-03-07T10:26:22.970Z,3.90
2018-03-07T10:29:26.292Z,3.63
2018-03-07T10:32:29.624Z,3.40
2018-03-07T10:35:33.331Z,4.00
2018-03-07T10:38:36.574Z,3.27
2018-03-07T10:41:39.801Z,3.63
2018-03-07T10:44:43.078Z,3.63
2018-03-07T10:47:46.354Z,3.40
2018-03-07T10:50:49.858Z,3.47
2018-03-07T10:53:53.104Z,2.80
2018-03-07T10:56:56.326Z,3.30
2018-03-07T10:59:59.495Z,2.60
2018-03-07T11:03:02.801Z,2.80
2018-03-07T11:06:06.057Z,2.10
2018-03-07T11:09:09.338Z,2.40
2018-03-07T11:12:12.663Z,6.70
2018-03-07T11:15:15.950Z,3.20
2018-03-07T11:18:19.277Z,2.30
2018-03-07T11:21:22.562Z,2.55
2018-03-07T11:24:25.845Z,2.80
2018-03-07T11:27:29.151Z,2.27
2018-03-07T11:30:32.370Z,2.10
2018-03-07T11:33:35.728Z,1.95
2018-03-07T11:36:38.930Z,1.90
2018-03-07T11:39:42.809Z,1.83
2018-03-07T11:42:46.123Z,1.60
2018-03-07T11:45:49.330Z,1.43
2018-03-07T11:48:52.616Z,1.10
2018-03-07T11:51:55.919Z,1.47
2018-03-07T11:54:59.121Z,1.27
2018-03-07T11:58:02.354Z,1.30
2018-03-07T12:01:05.700Z,1.07
2018-03-07T12:04:09.003Z,1.37
2018-03-07T12:07:12.299Z,1.10
2018-03-07T12:10:15.638Z,0.80
2018-03-07T12:13:18.882Z,1.00
2018-03-07T12:16:22.187Z,1.07
2018-03-07T12:19:25.523Z,1.13
2018-03-07T12:22:28.786Z,0.90
2018-03-07T12:25:32.101Z,0.90
2018-03-07T12:28:35.669Z,1.20
2018-03-07T12:31:38.978Z,0.80
2018-03-07T12:34:42.180Z,0.70
2018-03-07T12:37:45.469Z,0.85
2018-03-07T12:40:48.713Z,1.30
2018-03-07T12:43:51.966Z,0.50
2018-03-07T12:46:55.186Z,0.60
2018-03-07T12:49:58.550Z,0.60
2018-03-07T12:53:01.857Z,0.50
2018-03-07T12:56:05.437Z,0.53
2018-03-07T12:59:08.653Z,0.63
2018-03-07T13:02:12.830Z,0.70
2018-03-07T13:05:16.812Z,0.50
2018-03-07T13:08:27.880Z,0.60
2018-03-07T13:11:31.454Z,0.90
2018-03-07T13:14:34.928Z,0.67
2018-03-07T13:17:38.560Z,0.50
2018-03-07T13:20:41.901Z,0.50
2018-03-07T13:23:45.160Z,0.60
2018-03-07T13:26:48.365Z,0.53
2018-03-07T13:29:52.584Z,0.70
2018-03-07T13:32:55.886Z,0.57
2018-03-07T13:36:00.314Z,0.70
2018-03-07T13:39:03.575Z,0.93
2018-03-07T13:42:06.850Z,2.00
2018-03-07T13:45:10.019Z,3.40
2018-03-07T13:48:13.356Z,0.78
2018-03-07T13:51:16.729Z,0.80
2018-03-07T13:54:19.988Z,0.77
2018-03-07T13:57:23.285Z,0.80
2018-03-07T14:00:26.598Z,0.83
2018-03-07T14:03:29.905Z,0.80
2018-03-07T14:06:33.126Z,0.67
2018-03-07T14:09:36.323Z,0.77
2018-03-07T14:12:39.692Z,0.70
2018-03-07T14:15:43.017Z,0.80
2018-03-07T14:18:47.027Z,0.70
2018-03-07T14:21:50.571Z,0.70
2018-03-07T14:24:53.835Z,0.70
2018-03-07T14:27:57.084Z,0.73
2018-03-07T14:31:00.455Z,0.60
2018-03-07T14:34:03.722Z,0.60
2018-03-07T14:37:06.941Z,0.97
2018-03-07T14:40:10.129Z,1.60
2018-03-07T14:43:13.336Z,1.00
2018-03-07T14:46:17.649Z,0.90
2018-03-07T14:49:21.127Z,0.90
2018-03-07T14:52:24.652Z,1.00
2018-03-07T14:55:28.072Z,0.70
2018-03-07T14:58:32.639Z,0.87
2018-03-07T15:01:35.894Z,0.63
2018-03-07T15:04:39.133Z,0.67
2018-03-07T15:07:46.094Z,0.80
2018-03-07T15:10:52.966Z,1.00
2018-03-07T15:13:56.207Z,0.93
2018-03-07T15:16:59.576Z,0.93
2018-03-07T15:20:02.906Z,0.73
2018-03-07T15:23:06.328Z,0.80
2018-03-07T15:26:09.580Z,0.80
2018-03-07T15:29:12.920Z,0.80
2018-03-07T15:32:16.192Z,0.80
2018-03-07T15:35:19.491Z,0.70
2018-03-07T15:38:22.799Z,0.90
2018-03-07T15:41:26.062Z,0.70
2018-03-07T15:44:29.487Z,0.70
2018-03-07T15:47:32.888Z,0.70
2018-03-07T15:50:36.777Z,0.57
2018-03-07T15:53:40.077Z,0.70
2018-03-07T15:56:43.393Z,0.60
2018-03-07T15:59:46.582Z,0.70
2018-03-07T16:02:49.917Z,0.60
2018-03-07T16:05:53.083Z,0.70
2018-03-07T16:08:56.242Z,0.60
2018-03-07T16:11:59.776Z,0.60
2018-03-07T16:15:03.086Z,0.67
2018-03-07T16:18:06.906Z,0.53
2018-03-07T16:21:10.116Z,0.80
2018-03-07T16:24:13.474Z,1.50
2018-03-07T16:27:16.813Z,1.20
2018-03-07T16:30:20.067Z,0.70
2018-03-07T16:33:23.907Z,0.50
2018-03-07T16:36:27.336Z,0.50
2018-03-07T16:39:30.642Z,0.60
2018-03-07T16:42:33.968Z,0.60
2018-03-07T16:45:37.416Z,0.60
2018-03-07T16:48:40.678Z,0.80
2018-03-07T16:51:43.984Z,0.80
2018-03-07T16:54:47.343Z,0.60
2018-03-07T16:57:50.636Z,0.90
2018-03-07T17:00:54.036Z,0.80
2018-03-07T17:03:57.263Z,1.10
2018-03-07T17:07:00.569Z,1.00
2018-03-07T17:10:04.377Z,1.40
2018-03-07T17:13:07.804Z,1.00
2018-03-07T17:16:11.056Z,2.13
2018-03-07T17:19:14.876Z,4.83
2018-03-07T17:22:18.695Z,2.77
2018-03-07T17:25:22.132Z,3.93
2018-03-07T17:28:25.867Z,2.73
2018-03-07T17:31:29.367Z,2.47
2018-03-07T17:34:33.033Z,2.70
2018-03-07T17:37:36.467Z,3.10
2018-03-07T17:40:39.853Z,2.70
2018-03-07T17:43:43.127Z,2.00
2018-03-07T17:46:47.012Z,1.80
2018-03-07T17:49:50.288Z,1.30
2018-03-07T17:52:53.507Z,2.03
2018-03-07T17:55:56.847Z,1.73
2018-03-07T17:59:00.240Z,1.43
2018-03-07T18:02:03.513Z,2.37
2018-03-07T18:05:06.831Z,2.37
2018-03-07T18:08:10.199Z,1.80
2018-03-07T18:11:13.673Z,1.85
2018-03-07T18:14:16.998Z,1.90
2018-03-07T18:17:20.682Z,1.77
2018-03-07T18:20:24.875Z,2.72
2018-03-07T18:23:28.504Z,2.60
2018-03-07T18:26:32.410Z,1.57
2018-03-07T18:29:35.848Z,1.43
2018-03-07T18:32:39.652Z,1.27
2018-03-07T18:35:44.660Z,1.50
2018-03-07T18:38:48.024Z,1.50
2018-03-07T18:41:51.410Z,1.37
2018-03-07T18:44:54.615Z,1.20
2018-03-07T18:47:57.906Z,1.20
2018-03-07T18:51:01.296Z,1.60
2018-03-07T18:54:04.703Z,1.20
2018-03-07T18:57:08.004Z,1.07
2018-03-07T19:00:12.185Z,1.05
2018-03-07T19:03:15.687Z,1.00
2018-03-07T19:06:20.023Z,0.90
2018-03-07T19:09:23.881Z,1.10
2018-03-07T19:12:29.310Z,1.32
2018-03-07T19:15:33.220Z,1.40
2018-03-07T19:18:37.622Z,1.43
2018-03-07T19:21:41.547Z,1.93
2018-03-07T19:24:45.778Z,1.70
2018-03-07T19:27:49.821Z,1.98
2018-03-07T19:30:53.160Z,1.80
2018-03-07T19:33:57.882Z,1.73
2018-03-07T19:37:03.050Z,2.00
2018-03-07T19:40:06.226Z,2.13
2018-03-07T19:43:09.537Z,2.08
2018-03-07T19:46:12.839Z,2.10
2018-03-07T19:49:16.182Z,1.93
2018-03-07T19:52:19.531Z,1.80
2018-03-07T19:55:22.752Z,1.90
2018-03-07T19:58:26.001Z,2.00
2018-03-07T20:01:29.416Z,2.13
2018-03-07T20:04:34.076Z,1.98
2018-03-07T20:07:38.665Z,2.05
2018-03-07T20:10:42.198Z,1.93
2018-03-07T20:13:46.931Z,2.20
2018-03-07T20:16:51.126Z,2.00
2018-03-07T20:19:54.661Z,2.00
2018-03-07T20:22:58.297Z,2.07
2018-03-07T20:26:02.145Z,2.20
2018-03-07T20:29:07.242Z,1.93
2018-03-07T20:32:10.782Z,1.87
2018-03-07T20:35:14.619Z,1.90
2018-03-07T20:38:18.851Z,2.30
2018-03-07T20:41:22.283Z,2.60
2018-03-07T20:44:26.538Z,2.30
2018-03-07T20:47:30.590Z,2.13
2018-03-07T20:50:34.351Z,2.20
2018-03-07T20:53:37.600Z,2.33
2018-03-07T20:56:41.582Z,2.63
2018-03-07T20:59:48.272Z,2.00
2018-03-07T21:02:52.841Z,2.37
2018-03-07T21:05:57.321Z,2.83
2018-03-07T21:09:01.609Z,2.57
2018-03-07T21:12:05.667Z,2.63
2018-03-07T21:15:10.075Z,2.60
2018-03-07T21:18:13.334Z,2.50
2018-03-07T21:21:17.243Z,2.70
2018-03-07T21:24:21.150Z,2.70
2018-03-07T21:27:24.675Z,2.60
2018-03-07T21:30:28.785Z,2.60
2018-03-07T21:33:32.386Z,2.60
2018-03-07T21:36:35.983Z,2.90
2018-03-07T21:39:39.689Z,2.87
2018-03-07T21:42:42.925Z,2.67
2018-03-07T21:45:46.243Z,2.70
2018-03-07T21:48:49.492Z,2.60
2018-03-07T21:51:52.797Z,2.57
2018-03-07T21:54:56.073Z,3.05
2018-03-07T21:57:59.311Z,3.08
2018-03-07T22:01:02.634Z,3.80
2018-03-07T22:04:05.921Z,3.70
2018-03-07T22:07:09.171Z,3.67
2018-03-07T22:10:12.469Z,3.20
2018-03-07T22:13:16.396Z,3.50
2018-03-07T22:16:19.749Z,3.80
2018-03-07T22:19:23.008Z,3.83
2018-03-07T22:22:26.351Z,3.60
2018-03-07T22:25:29.574Z,3.77
2018-03-07T22:28:32.944Z,3.87
2018-03-07T22:31:36.304Z,3.60
2018-03-07T22:34:39.637Z,3.63
2018-03-07T22:37:42.916Z,3.63
2018-03-07T22:40:46.285Z,4.03
2018-03-07T22:43:49.603Z,4.03
2018-03-07T22:46:53.017Z,3.97
2018-03-07T22:49:56.428Z,4.23
2018-03-07T22:52:59.628Z,4.30
2018-03-07T22:56:02.983Z,4.13
2018-03-07T22:59:06.230Z,4.23
2018-03-07T23:02:09.548Z,4.37
2018-03-07T23:05:12.779Z,4.33
2018-03-07T23:08:16.022Z,4.13
2018-03-07T23:11:19.280Z,3.73
2018-03-07T23:14:23.089Z,4.10
2018-03-07T23:17:26.234Z,3.53
2018-03-07T23:20:29.416Z,4.20
2018-03-07T23:23:32.672Z,3.43
2018-03-07T23:26:35.888Z,4.10
2018-03-07T23:29:39.039Z,3.70
2018-03-07T23:32:42.196Z,3.93
2018-03-07T23:35:45.440Z,3.40
2018-03-07T23:38:48.727Z,3.60
2018-03-07T23:41:52.051Z,3.25
2018-03-07T23:44:55.378Z,3.22
2018-03-07T23:47:58.647Z,3.50
2018-03-07T23:51:02.340Z,3.85
2018-03-07T23:54:05.687Z,3.27
2018-03-07T23:57:08.898Z,2.95
